sensor_id;sensor_type;location;lat;lon;timestamp;pressure;altitude;pressure_sealevel;temperature;humidity
73341;BME280;61578;52.002;5.468;2023-08-08T00:00:23;101371.03;;;16.19;82.04
73341;BME280;61578;52.002;5.468;2023-08-08T00:00:54;101354.59;;;16.13;82.34
73341;BME280;61578;52.002;5.468;2023-08-08T00:01:25;101368.00;;;16.24;82.12
73341;BME280;61578;52.002;5.468;2023-08-08T00:01:56;101361.78;;;16.24;81.86
73341;BME280;61578;52.002;5.468;2023-08-08T00:02:36;101375.06;;;16.25;81.93
73341;BME280;61578;52.002;5.468;2023-08-08T00:03:07;101367.75;;;16.27;81.88
73341;BME280;61578;52.002;5.468;2023-08-08T00:03:39;101365.78;;;16.29;81.97
73341;BME280;61578;52.002;5.468;2023-08-08T00:04:12;101374.56;;;16.31;82.22
73341;BME280;61578;52.002;5.468;2023-08-08T00:04:43;101369.22;;;16.31;81.82
73341;BME280;61578;52.002;5.468;2023-08-08T00:05:14;101355.34;;;16.26;82.26
73341;BME280;61578;52.002;5.468;2023-08-08T00:05:44;101370.06;;;16.32;82.06
73341;BME280;61578;52.002;5.468;2023-08-08T00:06:15;101365.78;;;16.29;82.44
73341;BME280;61578;52.002;5.468;2023-08-08T00:06:46;101371.88;;;16.31;82.06
73341;BME280;61578;52.002;5.468;2023-08-08T00:07:17;101367.75;;;16.27;82.34
73341;BME280;61578;52.002;5.468;2023-08-08T00:07:47;101372.00;;;16.30;82.08
73341;BME280;61578;52.002;5.468;2023-08-08T00:08:18;101368.47;;;16.29;82.19
73341;BME280;61578;52.002;5.468;2023-08-08T00:08:49;101373.13;;;16.27;82.23
73341;BME280;61578;52.002;5.468;2023-08-08T00:09:20;101367.75;;;16.27;82.26
73341;BME280;61578;52.002;5.468;2023-08-08T00:09:51;101368.63;;;16.28;81.98
73341;BME280;61578;52.002;5.468;2023-08-08T00:10:22;101364.69;;;16.32;81.96
73341;BME280;61578;52.002;5.468;2023-08-08T00:10:53;101371.78;;;16.33;82.17
73341;BME280;61578;52.002;5.468;2023-08-08T00:11:24;101371.66;;;16.34;82.10
73341;BME280;61578;52.002;5.468;2023-08-08T00:11:54;101364.47;;;16.35;82.13
73341;BME280;61578;52.002;5.468;2023-08-08T00:12:33;101367.88;;;16.37;82.04
73341;BME280;61578;52.002;5.468;2023-08-08T00:13:04;101371.16;;;16.40;81.80
73341;BME280;61578;52.002;5.468;2023-08-08T00:13:34;101364.81;;;16.41;81.87
73341;BME280;61578;52.002;5.468;2023-08-08T00:14:05;101358.47;;;16.42;81.59
73341;BME280;61578;52.002;5.468;2023-08-08T00:14:36;101366.28;;;16.45;81.79
73341;BME280;61578;52.002;5.468;2023-08-08T00:15:08;101359.22;;;16.44;81.97
73341;BME280;61578;52.002;5.468;2023-08-08T00:15:39;101360.06;;;16.45;81.82
73341;BME280;61578;52.002;5.468;2023-08-08T00:16:10;101358.25;;;16.45;81.99
73341;BME280;61578;52.002;5.468;2023-08-08T00:16:41;101354.09;;;16.41;81.69
73341;BME280;61578;52.002;5.468;2023-08-08T00:17:12;101362.63;;;16.46;81.89
73341;BME280;61578;52.002;5.468;2023-08-08T00:17:42;101362.63;;;16.46;81.78
73341;BME280;61578;52.002;5.468;2023-08-08T00:18:13;101360.69;;;16.48;81.29
73341;BME280;61578;52.002;5.468;2023-08-08T00:18:44;101354.31;;;16.49;81.82
73341;BME280;61578;52.002;5.468;2023-08-08T00:19:15;101357.75;;;16.51;82.01
73341;BME280;61578;52.002;5.468;2023-08-08T00:19:46;101359.56;;;16.51;81.67
73341;BME280;61578;52.002;5.468;2023-08-08T00:20:17;101358.47;;;16.53;81.41
73341;BME280;61578;52.002;5.468;2023-08-08T00:20:47;101354.31;;;16.49;81.65
73341;BME280;61578;52.002;5.468;2023-08-08T00:21:21;101352.25;;;16.53;81.72
73341;BME280;61578;52.002;5.468;2023-08-08T00:21:52;101352.16;;;16.54;81.59
73341;BME280;61578;52.002;5.468;2023-08-08T00:22:23;101358.34;;;16.55;81.70
73341;BME280;61578;52.002;5.468;2023-08-08T00:22:54;101358.13;;;16.58;81.58
73341;BME280;61578;52.002;5.468;2023-08-08T00:23:25;101354.59;;;16.58;82.07
73341;BME280;61578;52.002;5.468;2023-08-08T00:23:58;101349.22;;;16.58;81.61
73341;BME280;61578;52.002;5.468;2023-08-08T00:24:29;101336.56;;;16.48;81.66
73341;BME280;61578;52.002;5.468;2023-08-08T00:24:59;101351.91;;;16.58;81.36
73341;BME280;61578;52.002;5.468;2023-08-08T00:25:30;101354.31;;;16.61;81.51
73341;BME280;61578;52.002;5.468;2023-08-08T00:26:01;101346.38;;;16.59;81.33
73341;BME280;61578;52.002;5.468;2023-08-08T00:26:32;101345.56;;;16.59;81.99
73341;BME280;61578;52.002;5.468;2023-08-08T00:27:03;101348.75;;;16.64;81.73
73341;BME280;61578;52.002;5.468;2023-08-08T00:27:34;101353.13;;;16.65;81.41
73341;BME280;61578;52.002;5.468;2023-08-08T00:28:10;101345.81;;;16.67;81.47
73341;BME280;61578;52.002;5.468;2023-08-08T00:28:41;101351.91;;;16.69;81.68
73341;BME280;61578;52.002;5.468;2023-08-08T00:29:14;101345.81;;;16.67;81.58
73341;BME280;61578;52.002;5.468;2023-08-08T00:29:45;101346.78;;;16.66;81.58
73341;BME280;61578;52.002;5.468;2023-08-08T00:30:19;101355.41;;;16.69;81.58
73341;BME280;61578;52.002;5.468;2023-08-08T00:30:50;101359.09;;;16.68;81.48
73341;BME280;61578;52.002;5.468;2023-08-08T00:31:20;101349.34;;;16.67;81.51
73341;BME280;61578;52.002;5.468;2023-08-08T00:31:51;101353.47;;;16.71;81.40
73341;BME280;61578;52.002;5.468;2023-08-08T00:32:22;101350.78;;;16.71;81.23
73341;BME280;61578;52.002;5.468;2023-08-08T00:32:54;101351.66;;;16.72;81.56
73341;BME280;61578;52.002;5.468;2023-08-08T00:33:24;101355.19;;;16.72;81.56
73341;BME280;61578;52.002;5.468;2023-08-08T00:33:55;101352.38;;;16.74;81.36
73341;BME280;61578;52.002;5.468;2023-08-08T00:34:26;101347.88;;;16.74;81.82
73341;BME280;61578;52.002;5.468;2023-08-08T00:34:56;101352.38;;;16.74;81.96
73341;BME280;61578;52.002;5.468;2023-08-08T00:35:27;101353.13;;;16.76;81.33
73341;BME280;61578;52.002;5.468;2023-08-08T00:35:58;101340.19;;;16.70;81.64
73341;BME280;61578;52.002;5.468;2023-08-08T00:36:28;101351.41;;;16.75;81.84
73341;BME280;61578;52.002;5.468;2023-08-08T00:36:59;101354.09;;;16.75;81.55
73341;BME280;61578;52.002;5.468;2023-08-08T00:37:30;101351.28;;;16.76;81.69
73341;BME280;61578;52.002;5.468;2023-08-08T00:38:01;101343.47;;;16.73;81.64
73341;BME280;61578;52.002;5.468;2023-08-08T00:38:31;101359.91;;;16.80;81.60
73341;BME280;61578;52.002;5.468;2023-08-08T00:39:02;101359.78;;;16.81;81.66
73341;BME280;61578;52.002;5.468;2023-08-08T00:39:36;101350.03;;;16.80;81.59
73341;BME280;61578;52.002;5.468;2023-08-08T00:40:07;101354.31;;;16.83;81.98
73341;BME280;61578;52.002;5.468;2023-08-08T00:40:39;101360.66;;;16.82;81.94
73341;BME280;61578;52.002;5.468;2023-08-08T00:41:15;101365.88;;;16.83;81.67
73341;BME280;61578;52.002;5.468;2023-08-08T00:41:46;101361.38;;;16.84;81.92
73341;BME280;61578;52.002;5.468;2023-08-08T00:42:17;101362.22;;;16.84;81.77
73341;BME280;61578;52.002;5.468;2023-08-08T00:42:50;101362.09;;;16.86;81.65
73341;BME280;61578;52.002;5.468;2023-08-08T00:43:24;101350.88;;;16.81;81.25
73341;BME280;61578;52.002;5.468;2023-08-08T00:43:54;101354.19;;;16.84;81.78
73341;BME280;61578;52.002;5.468;2023-08-08T00:44:27;101360.03;;;16.89;81.79
73341;BME280;61578;52.002;5.468;2023-08-08T00:44:58;101358.19;;;16.90;81.61
73341;BME280;61578;52.002;5.468;2023-08-08T00:45:34;101347.31;;;16.91;81.41
73341;BME280;61578;52.002;5.468;2023-08-08T00:46:06;101351.59;;;16.94;81.40
73341;BME280;61578;52.002;5.468;2023-08-08T00:46:37;101351.47;;;16.96;81.15
73341;BME280;61578;52.002;5.468;2023-08-08T00:47:09;101349.66;;;16.96;81.65
73341;BME280;61578;52.002;5.468;2023-08-08T00:47:41;101353.19;;;16.97;81.58
73341;BME280;61578;52.002;5.468;2023-08-08T00:48:13;101354.88;;;16.98;81.83
73341;BME280;61578;52.002;5.468;2023-08-08T00:48:44;101346.00;;;16.97;81.45
73341;BME280;61578;52.002;5.468;2023-08-08T00:49:14;101353.91;;;16.99;81.72
73341;BME280;61578;52.002;5.468;2023-08-08T00:49:46;101347.69;;;16.98;81.87
73341;BME280;61578;52.002;5.468;2023-08-08T00:50:19;101342.94;;;16.90;81.84
73341;BME280;61578;52.002;5.468;2023-08-08T00:50:54;101350.38;;;16.98;81.81
73341;BME280;61578;52.002;5.468;2023-08-08T00:51:25;101353.91;;;16.99;81.56
73341;BME280;61578;52.002;5.468;2023-08-08T00:51:58;101351.34;;;16.97;82.18
73341;BME280;61578;52.002;5.468;2023-08-08T00:52:29;101344.03;;;16.99;82.59
73341;BME280;61578;52.002;5.468;2023-08-08T00:53:02;101351.94;;;17.01;82.33
73341;BME280;61578;52.002;5.468;2023-08-08T00:53:35;101349.25;;;17.01;82.35
73341;BME280;61578;52.002;5.468;2023-08-08T00:54:07;101346.44;;;17.02;82.34
73341;BME280;61578;52.002;5.468;2023-08-08T00:54:40;101345.59;;;17.02;81.92
73341;BME280;61578;52.002;5.468;2023-08-08T00:55:11;101347.28;;;17.03;81.88
73341;BME280;61578;52.002;5.468;2023-08-08T00:55:45;101343.75;;;17.02;81.36
73341;BME280;61578;52.002;5.468;2023-08-08T00:56:17;101345.59;;;17.02;81.44
73341;BME280;61578;52.002;5.468;2023-08-08T00:56:48;101344.63;;;17.03;81.95
73341;BME280;61578;52.002;5.468;2023-08-08T00:57:19;101334.28;;;16.98;82.36
73341;BME280;61578;52.002;5.468;2023-08-08T00:57:51;101343.75;;;17.02;82.19
73341;BME280;61578;52.002;5.468;2023-08-08T00:58:22;101343.75;;;17.02;82.47
73341;BME280;61578;52.002;5.468;2023-08-08T00:58:52;101347.41;;;17.01;82.45
73341;BME280;61578;52.002;5.468;2023-08-08T00:59:24;101348.38;;;17.00;82.33
73341;BME280;61578;52.002;5.468;2023-08-08T00:59:55;101347.41;;;17.01;82.75
73341;BME280;61578;52.002;5.468;2023-08-08T01:00:25;101348.38;;;17.00;82.67
73341;BME280;61578;52.002;5.468;2023-08-08T01:00:56;101342.31;;;16.98;82.60
73341;BME280;61578;52.002;5.468;2023-08-08T01:01:30;101346.72;;;16.99;83.04
73341;BME280;61578;52.002;5.468;2023-08-08T01:02:01;101336.97;;;16.98;82.63
73341;BME280;61578;52.002;5.468;2023-08-08T01:02:31;101342.31;;;16.98;83.28
73341;BME280;61578;52.002;5.468;2023-08-08T01:03:02;101348.53;;;16.99;82.41
73341;BME280;61578;52.002;5.468;2023-08-08T01:03:33;101340.34;;;17.00;82.60
73341;BME280;61578;52.002;5.468;2023-08-08T01:04:04;101331.97;;;16.93;83.14
73341;BME280;61578;52.002;5.468;2023-08-08T01:04:40;101341.19;;;17.01;82.39
73341;BME280;61578;52.002;5.468;2023-08-08T01:05:14;101342.06;;;17.01;82.26
73341;BME280;61578;52.002;5.468;2023-08-08T01:05:51;101331.31;;;17.01;82.02
73341;BME280;61578;52.002;5.468;2023-08-08T01:07:29;101338.38;;;17.02;82.04
73341;BME280;61578;52.002;5.468;2023-08-08T01:08:07;101345.59;;;17.02;81.96
73341;BME280;61578;52.002;5.468;2023-08-08T01:08:57;101343.03;;;17.00;82.27
73341;BME280;61578;52.002;5.468;2023-08-08T01:10:41;101337.94;;;16.97;82.00
73341;BME280;61578;52.002;5.468;2023-08-08T01:11:15;101342.56;;;16.95;82.39
73341;BME280;61578;52.002;5.468;2023-08-08T01:11:47;101338.19;;;16.94;82.98
73341;BME280;61578;52.002;5.468;2023-08-08T01:12:21;101348.78;;;16.96;82.58
73341;BME280;61578;52.002;5.468;2023-08-08T01:13:00;101336.47;;;16.93;83.25
73341;BME280;61578;52.002;5.468;2023-08-08T01:13:42;101351.59;;;16.94;82.99
73341;BME280;61578;52.002;5.468;2023-08-08T01:14:21;101344.53;;;16.93;83.29
73341;BME280;61578;52.002;5.468;2023-08-08T01:14:56;101349.88;;;16.93;83.15
73341;BME280;61578;52.002;5.468;2023-08-08T01:15:28;101352.56;;;16.93;83.31
73341;BME280;61578;52.002;5.468;2023-08-08T01:16:05;101334.66;;;16.93;83.76
73341;BME280;61578;52.002;5.468;2023-08-08T01:16:38;101341.72;;;16.95;83.42
73341;BME280;61578;52.002;5.468;2023-08-08T01:17:11;101335.63;;;16.92;83.35
73341;BME280;61578;52.002;5.468;2023-08-08T01:17:49;101343.44;;;16.96;83.76
73341;BME280;61578;52.002;5.468;2023-08-08T01:18:21;101350.50;;;16.97;83.90
73341;BME280;61578;52.002;5.468;2023-08-08T01:18:53;101341.72;;;16.95;83.77
73341;BME280;61578;52.002;5.468;2023-08-08T01:19:27;101338.19;;;16.94;83.63
73341;BME280;61578;52.002;5.468;2023-08-08T01:20:00;101343.31;;;16.97;84.15
73341;BME280;61578;52.002;5.468;2023-08-08T01:20:34;101343.19;;;16.99;83.75
73341;BME280;61578;52.002;5.468;2023-08-08T01:21:15;101342.22;;;17.00;84.26
73341;BME280;61578;52.002;5.468;2023-08-08T01:21:48;101337.53;;;17.02;84.00
73341;BME280;61578;52.002;5.468;2023-08-08T01:22:32;101340.09;;;17.03;84.16
73341;BME280;61578;52.002;5.468;2023-08-08T01:23:19;101334.72;;;17.03;83.95
73341;BME280;61578;52.002;5.468;2023-08-08T01:24:11;101334.72;;;17.03;83.06
73341;BME280;61578;52.002;5.468;2023-08-08T01:24:54;101330.34;;;17.02;83.55
73341;BME280;61578;52.002;5.468;2023-08-08T01:25:25;101329.25;;;17.05;83.68
73341;BME280;61578;52.002;5.468;2023-08-08T01:26:05;101336.19;;;17.07;83.16
73341;BME280;61578;52.002;5.468;2023-08-08T01:26:38;101336.31;;;17.06;83.20
73341;BME280;61578;52.002;5.468;2023-08-08T01:27:11;101336.31;;;17.06;83.33
73341;BME280;61578;52.002;5.468;2023-08-08T01:27:50;101338.03;;;17.07;83.62
73341;BME280;61578;52.002;5.468;2023-08-08T01:28:22;101340.59;;;17.08;83.55
73341;BME280;61578;52.002;5.468;2023-08-08T01:28:56;101345.09;;;17.08;83.73
73341;BME280;61578;52.002;5.468;2023-08-08T01:29:27;101339.00;;;17.06;83.06
73341;BME280;61578;52.002;5.468;2023-08-08T01:29:57;101339.97;;;17.05;83.19
73341;BME280;61578;52.002;5.468;2023-08-08T01:30:28;101341.81;;;17.04;82.90
73341;BME280;61578;52.002;5.468;2023-08-08T01:30:59;101347.91;;;17.06;83.01
73341;BME280;61578;52.002;5.468;2023-08-08T01:31:30;101342.78;;;17.03;83.03
73341;BME280;61578;52.002;5.468;2023-08-08T01:32:00;101347.03;;;17.06;83.14
73341;BME280;61578;52.002;5.468;2023-08-08T01:32:31;101343.63;;;17.04;83.28
73341;BME280;61578;52.002;5.468;2023-08-08T01:33:04;101350.59;;;17.06;83.55
73341;BME280;61578;52.002;5.468;2023-08-08T01:33:35;101342.66;;;17.05;83.85
73341;BME280;61578;52.002;5.468;2023-08-08T01:34:10;101350.59;;;17.06;83.66
73341;BME280;61578;52.002;5.468;2023-08-08T01:34:41;101345.22;;;17.06;83.47
73341;BME280;61578;52.002;5.468;2023-08-08T01:35:15;101350.47;;;17.08;83.90
73341;BME280;61578;52.002;5.468;2023-08-08T01:35:54;101351.19;;;17.10;83.40
73341;BME280;61578;52.002;5.468;2023-08-08T01:36:42;101348.50;;;17.10;84.51
73341;BME280;61578;52.002;5.468;2023-08-08T01:38:35;101339.25;;;17.03;83.79
73341;BME280;61578;52.002;5.468;2023-08-08T01:39:14;101351.03;;;17.11;84.08
73341;BME280;61578;52.002;5.468;2023-08-08T01:39:52;101352.75;;;17.12;83.58
73341;BME280;61578;52.002;5.468;2023-08-08T01:40:31;101351.66;;;17.15;83.77
73341;BME280;61578;52.002;5.468;2023-08-08T01:41:04;101342.13;;;17.11;83.75
73341;BME280;61578;52.002;5.468;2023-08-08T01:41:39;101336.75;;;17.11;82.93
73341;BME280;61578;52.002;5.468;2023-08-08T01:42:14;101349.56;;;17.18;83.06
73341;BME280;61578;52.002;5.468;2023-08-08T01:42:48;101353.22;;;17.17;82.68
73341;BME280;61578;52.002;5.468;2023-08-08T01:43:20;101349.69;;;17.17;82.91
73341;BME280;61578;52.002;5.468;2023-08-08T01:43:53;101348.72;;;17.18;82.97
73341;BME280;61578;52.002;5.468;2023-08-08T01:44:26;101344.19;;;17.18;82.71
73341;BME280;61578;52.002;5.468;2023-08-08T01:44:57;101333.72;;;17.15;82.33
73341;BME280;61578;52.002;5.468;2023-08-08T01:45:29;101344.44;;;17.15;82.28
73341;BME280;61578;52.002;5.468;2023-08-08T01:46:02;101342.50;;;17.17;82.14
73341;BME280;61578;52.002;5.468;2023-08-08T01:46:35;101341.75;;;17.15;82.37
73341;BME280;61578;52.002;5.468;2023-08-08T01:47:08;101336.66;;;17.12;81.88
73341;BME280;61578;52.002;5.468;2023-08-08T01:47:39;101342.88;;;17.13;82.30
73341;BME280;61578;52.002;5.468;2023-08-08T01:48:11;101333.50;;;17.07;82.34
73341;BME280;61578;52.002;5.468;2023-08-08T01:48:45;101337.91;;;17.08;82.20
73341;BME280;61578;52.002;5.468;2023-08-08T01:49:17;101333.38;;;17.09;82.41
73341;BME280;61578;52.002;5.468;2023-08-08T01:49:47;101326.69;;;17.03;82.24
73341;BME280;61578;52.002;5.468;2023-08-08T01:50:21;101333.63;;;17.06;82.05
73341;BME280;61578;52.002;5.468;2023-08-08T01:50:54;101340.94;;;17.04;82.24
73341;BME280;61578;52.002;5.468;2023-08-08T01:51:28;101337.66;;;17.00;81.93
73341;BME280;61578;52.002;5.468;2023-08-08T01:51:59;101335.13;;;16.99;81.92
73341;BME280;61578;52.002;5.468;2023-08-08T01:52:32;101329.16;;;16.95;82.17
73341;BME280;61578;52.002;5.468;2023-08-08T01:53:04;101320.91;;;16.87;82.43
73341;BME280;61578;52.002;5.468;2023-08-08T01:53:41;101325.16;;;16.89;82.24
73341;BME280;61578;52.002;5.468;2023-08-08T01:54:14;101331.50;;;16.88;82.16
73341;BME280;61578;52.002;5.468;2023-08-08T01:54:49;101330.66;;;16.88;82.32
73341;BME280;61578;52.002;5.468;2023-08-08T01:55:26;101327.00;;;16.89;82.31
73341;BME280;61578;52.002;5.468;2023-08-08T01:55:59;101324.56;;;16.86;82.44
73341;BME280;61578;52.002;5.468;2023-08-08T01:56:30;101316.41;;;16.76;82.47
73341;BME280;61578;52.002;5.468;2023-08-08T01:57:04;101329.56;;;16.79;82.31
73341;BME280;61578;52.002;5.468;2023-08-08T01:57:34;101327.72;;;16.80;82.17
73341;BME280;61578;52.002;5.468;2023-08-08T01:58:05;101327.16;;;16.76;82.28
73341;BME280;61578;52.002;5.468;2023-08-08T01:58:41;101317.63;;;16.72;82.32
73341;BME280;61578;52.002;5.468;2023-08-08T01:59:12;101325.81;;;16.71;82.53
73341;BME280;61578;52.002;5.468;2023-08-08T01:59:45;101320.56;;;16.69;82.79
73341;BME280;61578;52.002;5.468;2023-08-08T02:00:16;101318.72;;;16.70;82.21
73341;BME280;61578;52.002;5.468;2023-08-08T02:00:47;101320.72;;;16.68;82.62
73341;BME280;61578;52.002;5.468;2023-08-08T02:01:19;101323.53;;;16.66;82.36
73341;BME280;61578;52.002;5.468;2023-08-08T02:01:49;101320.09;;;16.64;82.62
73341;BME280;61578;52.002;5.468;2023-08-08T02:02:20;101309.97;;;16.56;82.70
73341;BME280;61578;52.002;5.468;2023-08-08T02:02:53;101325.94;;;16.58;82.88
73341;BME280;61578;52.002;5.468;2023-08-08T02:03:24;101321.28;;;16.60;82.55
73341;BME280;61578;52.002;5.468;2023-08-08T02:03:55;101320.59;;;16.58;82.38
73341;BME280;61578;52.002;5.468;2023-08-08T02:04:25;101316.44;;;16.54;82.52
73341;BME280;61578;52.002;5.468;2023-08-08T02:04:56;101319.25;;;16.52;82.68
73341;BME280;61578;52.002;5.468;2023-08-08T02:05:27;101325.56;;;16.51;82.59
73341;BME280;61578;52.002;5.468;2023-08-08T02:05:57;101317.19;;;16.45;82.05
73341;BME280;61578;52.002;5.468;2023-08-08T02:06:30;101318.16;;;16.44;82.56
73341;BME280;61578;52.002;5.468;2023-08-08T02:07:03;101323.63;;;16.42;82.96
73341;BME280;61578;52.002;5.468;2023-08-08T02:07:34;101319.38;;;16.40;82.54
73341;BME280;61578;52.002;5.468;2023-08-08T02:08:08;101317.09;;;16.35;82.54
73341;BME280;61578;52.002;5.468;2023-08-08T02:08:45;101291.50;;;16.20;82.64
73341;BME280;61578;52.002;5.468;2023-08-08T02:09:16;101324.63;;;16.30;82.64
73341;BME280;61578;52.002;5.468;2023-08-08T02:09:53;101307.56;;;16.20;82.81
73341;BME280;61578;52.002;5.468;2023-08-08T02:10:26;101312.69;;;16.23;83.12
73341;BME280;61578;52.002;5.468;2023-08-08T02:10:57;101316.97;;;16.26;83.39
73341;BME280;61578;52.002;5.468;2023-08-08T02:11:28;101321.47;;;16.25;83.14
73341;BME280;61578;52.002;5.468;2023-08-08T02:11:58;101309.56;;;16.18;83.54
73341;BME280;61578;52.002;5.468;2023-08-08T02:12:29;101315.25;;;16.25;83.61
73341;BME280;61578;52.002;5.468;2023-08-08T02:13:00;101317.22;;;16.23;83.31
73341;BME280;61578;52.002;5.468;2023-08-08T02:13:33;101318.28;;;16.20;83.15
73341;BME280;61578;52.002;5.468;2023-08-08T02:14:04;101315.63;;;16.20;83.23
73341;BME280;61578;52.002;5.468;2023-08-08T02:14:34;101302.09;;;16.10;83.16
73341;BME280;61578;52.002;5.468;2023-08-08T02:15:07;101313.22;;;16.17;83.10
73341;BME280;61578;52.002;5.468;2023-08-08T02:15:41;101310.66;;;16.15;83.81
73341;BME280;61578;52.002;5.468;2023-08-08T02:16:14;101297.88;;;16.08;83.89
73341;BME280;61578;52.002;5.468;2023-08-08T02:16:45;101310.25;;;16.20;84.33
73341;BME280;61578;52.002;5.468;2023-08-08T02:17:18;101314.66;;;16.21;84.36
73341;BME280;61578;52.002;5.468;2023-08-08T02:17:50;101309.28;;;16.21;84.11
73341;BME280;61578;52.002;5.468;2023-08-08T02:18:21;101310.03;;;16.23;84.45
73341;BME280;61578;52.002;5.468;2023-08-08T02:18:54;101312.47;;;16.26;84.30
73341;BME280;61578;52.002;5.468;2023-08-08T02:19:25;101311.50;;;16.27;84.46
73341;BME280;61578;52.002;5.468;2023-08-08T02:19:59;101307.84;;;16.28;84.56
73341;BME280;61578;52.002;5.468;2023-08-08T02:20:30;101314.75;;;16.31;84.37
73341;BME280;61578;52.002;5.468;2023-08-08T02:21:00;101305.88;;;16.30;84.39
73341;BME280;61578;52.002;5.468;2023-08-08T02:21:31;101313.91;;;16.30;83.62
73341;BME280;61578;52.002;5.468;2023-08-08T02:22:02;101309.53;;;16.29;84.14
73341;BME280;61578;52.002;5.468;2023-08-08T02:22:33;101310.53;;;16.28;83.95
73341;BME280;61578;52.002;5.468;2023-08-08T02:23:07;101315.03;;;16.28;83.78
73341;BME280;61578;52.002;5.468;2023-08-08T02:23:38;101308.81;;;16.27;83.70
73341;BME280;61578;52.002;5.468;2023-08-08T02:24:08;101307.22;;;16.25;83.28
73341;BME280;61578;52.002;5.468;2023-08-08T02:24:39;101311.72;;;16.24;83.64
73341;BME280;61578;52.002;5.468;2023-08-08T02:25:10;101298.00;;;16.17;83.86
73341;BME280;61578;52.002;5.468;2023-08-08T02:25:40;101309.91;;;16.25;83.74
73341;BME280;61578;52.002;5.468;2023-08-08T02:26:11;101310.53;;;16.28;83.81
73341;BME280;61578;52.002;5.468;2023-08-08T02:26:42;101312.19;;;16.29;84.07
73341;BME280;61578;52.002;5.468;2023-08-08T02:27:13;101307.69;;;16.30;83.84
73341;BME280;61578;52.002;5.468;2023-08-08T02:27:44;101311.22;;;16.30;83.93
73341;BME280;61578;52.002;5.468;2023-08-08T02:28:15;101304.03;;;16.31;83.90
73341;BME280;61578;52.002;5.468;2023-08-08T02:28:46;101312.81;;;16.33;83.59
73341;BME280;61578;52.002;5.468;2023-08-08T02:29:16;101312.94;;;16.31;83.45
73341;BME280;61578;52.002;5.468;2023-08-08T02:29:47;101307.69;;;16.30;83.57
73341;BME280;61578;52.002;5.468;2023-08-08T02:30:18;101313.06;;;16.30;83.65
73341;BME280;61578;52.002;5.468;2023-08-08T02:30:48;101307.84;;;16.28;83.85
73341;BME280;61578;52.002;5.468;2023-08-08T02:31:19;101308.44;;;16.32;83.57
73341;BME280;61578;52.002;5.468;2023-08-08T02:31:53;101309.41;;;16.31;83.79
73341;BME280;61578;52.002;5.468;2023-08-08T02:32:24;101310.25;;;16.31;83.64
73341;BME280;61578;52.002;5.468;2023-08-08T02:32:55;101311.22;;;16.30;83.49
73341;BME280;61578;52.002;5.468;2023-08-08T02:33:26;101309.53;;;16.29;83.73
73341;BME280;61578;52.002;5.468;2023-08-08T02:33:57;101309.53;;;16.29;83.27
73341;BME280;61578;52.002;5.468;2023-08-08T02:34:27;101314.19;;;16.27;83.54
73341;BME280;61578;52.002;5.468;2023-08-08T02:34:58;101307.00;;;16.28;83.65
73341;BME280;61578;52.002;5.468;2023-08-08T02:35:29;101305.00;;;16.30;83.58
73341;BME280;61578;52.002;5.468;2023-08-08T02:36:00;101307.69;;;16.30;83.45
73341;BME280;61578;52.002;5.468;2023-08-08T02:36:31;101309.53;;;16.29;83.57
73341;BME280;61578;52.002;5.468;2023-08-08T02:37:01;101305.28;;;16.27;83.41
73341;BME280;61578;52.002;5.468;2023-08-08T02:37:35;101289.78;;;16.19;83.39
73341;BME280;61578;52.002;5.468;2023-08-08T02:38:06;101306.25;;;16.26;83.53
73341;BME280;61578;52.002;5.468;2023-08-08T02:38:37;101305.28;;;16.27;83.75
73341;BME280;61578;52.002;5.468;2023-08-08T02:39:07;101303.56;;;16.26;83.86
73341;BME280;61578;52.002;5.468;2023-08-08T02:39:38;101303.56;;;16.26;83.96
73341;BME280;61578;52.002;5.468;2023-08-08T02:40:09;101305.41;;;16.25;83.59
73341;BME280;61578;52.002;5.468;2023-08-08T02:40:40;101300.16;;;16.24;83.79
73341;BME280;61578;52.002;5.468;2023-08-08T02:41:11;101302.00;;;16.23;83.78
73341;BME280;61578;52.002;5.468;2023-08-08T02:41:41;101296.75;;;16.22;83.58
73341;BME280;61578;52.002;5.468;2023-08-08T02:42:13;101301.38;;;16.19;83.23
73341;BME280;61578;52.002;5.468;2023-08-08T02:42:43;101303.34;;;16.17;83.57
73341;BME280;61578;52.002;5.468;2023-08-08T02:43:17;101304.44;;;16.15;83.69
73341;BME280;61578;52.002;5.468;2023-08-08T02:43:48;101300.03;;;16.14;83.01
73341;BME280;61578;52.002;5.468;2023-08-08T02:44:19;101285.69;;;16.04;82.92
73341;BME280;61578;52.002;5.468;2023-08-08T02:44:52;101297.88;;;16.08;83.32
73341;BME280;61578;52.002;5.468;2023-08-08T02:45:29;101277.16;;;15.99;83.25
73341;BME280;61578;52.002;5.468;2023-08-08T02:46:02;101298.09;;;16.05;83.76
73341;BME280;61578;52.002;5.468;2023-08-08T02:46:35;101292.97;;;16.02;83.31
73341;BME280;61578;52.002;5.468;2023-08-08T02:47:07;101296.75;;;15.99;83.39
73341;BME280;61578;52.002;5.468;2023-08-08T02:47:41;101298.72;;;15.97;83.40
73341;BME280;61578;52.002;5.468;2023-08-08T02:48:17;101295.31;;;15.95;83.56
73341;BME280;61578;52.002;5.468;2023-08-08T02:48:48;101294.47;;;15.95;83.60
73341;BME280;61578;52.002;5.468;2023-08-08T02:49:18;101297.13;;;15.95;84.00
73341;BME280;61578;52.002;5.468;2023-08-08T02:49:49;101303.47;;;15.94;83.96
73341;BME280;61578;52.002;5.468;2023-08-08T02:50:20;101299.94;;;15.93;84.08
73341;BME280;61578;52.002;5.468;2023-08-08T02:50:51;101260.84;;;15.79;83.77
73341;BME280;61578;52.002;5.468;2023-08-08T02:51:21;101292.00;;;15.92;83.78
73341;BME280;61578;52.002;5.468;2023-08-08T02:51:52;101294.81;;;15.90;83.77
73341;BME280;61578;52.002;5.468;2023-08-08T02:52:23;101278.03;;;15.77;83.56
73341;BME280;61578;52.002;5.468;2023-08-08T02:52:54;101293.94;;;15.90;83.88
73341;BME280;61578;52.002;5.468;2023-08-08T02:53:24;101294.91;;;15.89;84.32